createdAt,value
2023-03-15T00:00:47.056Z,3
2023-03-15T00:01:53.766Z,3
2023-03-15T00:03:00.514Z,3
2023-03-15T00:04:07.271Z,3
2023-03-15T00:05:13.971Z,3
2023-03-15T00:06:20.700Z,3
2023-03-15T00:07:27.399Z,3
2023-03-15T00:08:34.159Z,3
2023-03-15T00:09:41.024Z,3
2023-03-15T00:10:49.222Z,3
2023-03-15T00:11:56.076Z,3
2023-03-15T00:13:02.855Z,3
2023-03-15T00:14:09.612Z,3
2023-03-15T00:15:16.597Z,4
2023-03-15T00:16:26.643Z,3
2023-03-15T00:17:33.517Z,4
2023-03-15T00:18:41.172Z,4
2023-03-15T00:19:47.875Z,3
2023-03-15T00:20:54.600Z,4
2023-03-15T00:22:01.399Z,4
2023-03-15T00:23:11.487Z,4
2023-03-15T00:24:18.275Z,3
2023-03-15T00:25:26.167Z,4
2023-03-15T00:26:32.873Z,5
2023-03-15T00:27:39.662Z,4
2023-03-15T00:28:46.460Z,3
2023-03-15T00:29:53.296Z,5
2023-03-15T00:31:00.375Z,5
2023-03-15T00:32:10.116Z,4
2023-03-15T00:33:16.999Z,4
2023-03-15T00:34:23.755Z,3
2023-03-15T00:35:36.085Z,4
2023-03-15T00:36:44.917Z,4
2023-03-15T00:37:51.777Z,4
2023-03-15T00:38:58.608Z,4
2023-03-15T00:40:05.507Z,4
2023-03-15T00:41:14.236Z,5
2023-03-15T00:42:21.055Z,4
2023-03-15T00:43:28.937Z,5
2023-03-15T00:44:35.668Z,4
2023-03-15T00:45:42.854Z,5
2023-03-15T00:46:50.202Z,5
2023-03-15T00:47:57.980Z,4
2023-03-15T00:49:04.858Z,5
2023-03-15T00:50:12.776Z,5
2023-03-15T00:51:19.626Z,4
2023-03-15T00:52:26.448Z,4
2023-03-15T00:53:33.368Z,6
2023-03-15T00:54:40.132Z,5
2023-03-15T00:55:47.059Z,5
2023-03-15T00:56:53.900Z,4
2023-03-15T00:58:00.684Z,4
2023-03-15T00:59:07.700Z,5
2023-03-15T01:00:14.496Z,5
2023-03-15T01:01:25.263Z,5
2023-03-15T01:02:32.117Z,5
2023-03-15T01:03:39.028Z,7
2023-03-15T01:04:47.685Z,7
2023-03-15T01:05:54.584Z,6
2023-03-15T01:07:01.448Z,6
2023-03-15T01:08:08.316Z,5
2023-03-15T01:09:15.152Z,6
2023-03-15T01:10:21.980Z,6
2023-03-15T01:11:28.837Z,4
2023-03-15T01:12:35.632Z,5
2023-03-15T01:13:42.518Z,5
2023-03-15T01:14:49.275Z,5
2023-03-15T01:15:56.179Z,6
2023-03-15T01:17:06.496Z,5
2023-03-15T01:18:13.316Z,6
2023-03-15T01:19:20.114Z,5
2023-03-15T01:20:26.935Z,5
2023-03-15T01:21:33.771Z,6
2023-03-15T01:22:40.732Z,7
2023-03-15T01:23:48.291Z,5
2023-03-15T01:24:55.051Z,5
2023-03-15T01:26:02.785Z,5
2023-03-15T01:27:12.036Z,5
2023-03-15T01:28:19.007Z,6
2023-03-15T01:29:27.104Z,5
2023-03-15T01:30:33.885Z,5
2023-03-15T01:31:41.519Z,4
2023-03-15T01:32:48.319Z,5
2023-03-15T01:33:55.163Z,5
2023-03-15T01:35:02.038Z,5
2023-03-15T01:36:09.074Z,6
2023-03-15T01:37:17.512Z,7
2023-03-15T01:38:24.296Z,6
2023-03-15T01:39:31.131Z,6
2023-03-15T01:40:38.036Z,6
2023-03-15T01:41:44.943Z,5
2023-03-15T01:42:51.741Z,5
2023-03-15T01:44:06.726Z,7
2023-03-15T01:45:18.743Z,4
2023-03-15T01:46:36.120Z,7
2023-03-15T01:47:42.818Z,7
2023-03-15T01:48:49.614Z,5
2023-03-15T01:50:01.558Z,5
2023-03-15T01:51:08.387Z,6
2023-03-15T01:52:22.028Z,8
2023-03-15T01:53:28.818Z,6
2023-03-15T01:54:36.490Z,6
2023-03-15T01:55:45.946Z,7
2023-03-15T01:56:52.988Z,6
2023-03-15T01:58:04.894Z,7
2023-03-15T01:59:11.728Z,6
2023-03-15T02:00:18.922Z,8
2023-03-15T02:01:25.698Z,7
2023-03-15T02:02:32.747Z,7
2023-03-15T02:03:39.524Z,6
2023-03-15T02:04:49.347Z,6
2023-03-15T02:05:56.166Z,6
2023-03-15T02:07:03.126Z,8
2023-03-15T02:08:10.169Z,9
2023-03-15T02:09:16.953Z,8
2023-03-15T02:10:23.727Z,12
2023-03-15T02:11:30.568Z,10
2023-03-15T02:12:38.437Z,8
2023-03-15T02:13:45.312Z,8
2023-03-15T02:14:52.087Z,9
2023-03-15T02:16:01.395Z,7
2023-03-15T02:17:08.323Z,9
2023-03-15T02:18:16.122Z,7
2023-03-15T02:19:22.952Z,6
2023-03-15T02:20:39.975Z,6
2023-03-15T02:21:54.823Z,7
2023-03-15T02:23:04.755Z,7
2023-03-15T02:24:11.746Z,7
2023-03-15T02:25:26.420Z,6
2023-03-15T02:26:41.040Z,8
2023-03-15T02:27:53.080Z,8
2023-03-15T02:29:00.714Z,8
2023-03-15T02:30:07.624Z,8
2023-03-15T02:31:14.695Z,8
2023-03-15T02:32:22.035Z,8
2023-03-15T02:33:29.596Z,6
2023-03-15T02:34:46.710Z,7
2023-03-15T02:35:53.524Z,7
2023-03-15T02:37:00.294Z,7
2023-03-15T02:38:07.128Z,8
2023-03-15T02:39:14.913Z,7
2023-03-15T02:40:21.710Z,9
2023-03-15T02:41:28.513Z,9
2023-03-15T02:42:40.140Z,7
2023-03-15T02:43:46.932Z,8
2023-03-15T02:44:54.661Z,8
2023-03-15T02:46:01.526Z,7
2023-03-15T02:47:13.634Z,8
2023-03-15T02:48:25.862Z,8
2023-03-15T02:49:32.695Z,9
2023-03-15T02:50:39.406Z,7
2023-03-15T02:51:46.294Z,7
2023-03-15T02:52:53.166Z,7
2023-03-15T02:54:00.053Z,7
2023-03-15T02:55:06.832Z,7
2023-03-15T02:56:16.819Z,7
2023-03-15T02:57:23.623Z,7
2023-03-15T02:58:30.489Z,8
2023-03-15T02:59:37.310Z,7
2023-03-15T03:00:44.104Z,7
2023-03-15T03:01:50.925Z,10
2023-03-15T03:02:57.675Z,8
2023-03-15T03:04:04.530Z,10
2023-03-15T03:05:11.627Z,7
2023-03-15T03:06:18.415Z,8
2023-03-15T03:07:25.241Z,7
2023-03-15T03:08:32.080Z,8
2023-03-15T03:09:38.868Z,10
2023-03-15T03:10:45.684Z,8
2023-03-15T03:11:52.484Z,10
2023-03-15T03:12:59.238Z,9
2023-03-15T03:14:06.009Z,10
2023-03-15T03:15:12.997Z,10
2023-03-15T03:16:19.924Z,8
2023-03-15T03:17:26.700Z,8
2023-03-15T03:18:33.690Z,8
2023-03-15T03:19:40.456Z,8
2023-03-15T03:20:47.382Z,8
2023-03-15T03:21:54.459Z,10
2023-03-15T03:23:01.317Z,8
2023-03-15T03:24:08.969Z,9
2023-03-15T03:25:21.568Z,9
2023-03-15T03:26:28.367Z,9
2023-03-15T03:27:35.180Z,8
2023-03-15T03:28:41.970Z,9
2023-03-15T03:29:48.798Z,9
2023-03-15T03:30:55.954Z,9
2023-03-15T03:32:02.675Z,8
2023-03-15T03:33:09.539Z,11
2023-03-15T03:34:17.185Z,9
2023-03-15T03:35:23.953Z,8
2023-03-15T03:36:32.505Z,9
2023-03-15T03:37:39.312Z,8
2023-03-15T03:38:46.094Z,10
2023-03-15T03:39:54.732Z,8
2023-03-15T03:41:01.490Z,9
2023-03-15T03:42:08.361Z,8
2023-03-15T03:43:15.272Z,9
2023-03-15T03:44:22.439Z,11
2023-03-15T03:45:29.299Z,11
2023-03-15T03:46:37.873Z,11
2023-03-15T03:47:45.500Z,9
2023-03-15T03:48:52.312Z,9
2023-03-15T03:49:59.131Z,10
2023-03-15T03:51:06.164Z,9
2023-03-15T03:52:13.161Z,9
2023-03-15T03:53:23.382Z,9
2023-03-15T03:54:30.180Z,9
2023-03-15T03:55:37.002Z,11
2023-03-15T03:56:46.062Z,9
2023-03-15T03:57:53.051Z,9
2023-03-15T03:58:59.943Z,8
2023-03-15T04:00:06.833Z,9
2023-03-15T04:01:13.910Z,8
2023-03-15T04:02:21.623Z,10
2023-03-15T04:03:28.391Z,11
2023-03-15T04:04:35.218Z,9
2023-03-15T04:05:42.034Z,10
2023-03-15T04:06:49.695Z,10
2023-03-15T04:07:56.558Z,10
2023-03-15T04:09:03.361Z,9
2023-03-15T04:10:10.177Z,9
2023-03-15T04:11:17.010Z,10
2023-03-15T04:12:25.211Z,10
2023-03-15T04:13:31.991Z,12
2023-03-15T04:14:38.790Z,10
2023-03-15T04:15:45.618Z,9
2023-03-15T04:16:52.390Z,9
2023-03-15T04:18:00.250Z,8
2023-03-15T04:19:07.254Z,9
2023-03-15T04:20:14.064Z,10
2023-03-15T04:21:21.635Z,10
2023-03-15T04:22:28.436Z,7
2023-03-15T04:23:35.708Z,8
2023-03-15T04:24:42.657Z,9
2023-03-15T04:25:49.395Z,10
2023-03-15T04:26:56.334Z,8
2023-03-15T04:28:04.223Z,8
2023-03-15T04:29:10.967Z,8
2023-03-15T04:30:17.885Z,8
2023-03-15T04:31:24.810Z,8
2023-03-15T04:32:31.684Z,8
2023-03-15T04:33:38.403Z,10
2023-03-15T04:34:45.221Z,10
2023-03-15T04:35:52.293Z,8
2023-03-15T04:36:59.210Z,10
2023-03-15T04:38:06.037Z,10
2023-03-15T04:39:12.933Z,12
2023-03-15T04:40:19.670Z,9
2023-03-15T04:41:29.459Z,10
2023-03-15T04:42:36.257Z,8
2023-03-15T04:43:43.217Z,8
2023-03-15T04:44:50.028Z,10
2023-03-15T04:45:56.915Z,11
2023-03-15T04:47:03.814Z,11
2023-03-15T04:48:10.643Z,10
2023-03-15T04:49:17.505Z,9
2023-03-15T04:50:24.369Z,10
2023-03-15T04:51:31.188Z,9
2023-03-15T04:52:37.966Z,10
2023-03-15T04:53:44.797Z,9
2023-03-15T04:54:52.579Z,9
2023-03-15T04:55:59.617Z,8
2023-03-15T04:57:06.469Z,7
2023-03-15T04:58:13.372Z,9
2023-03-15T04:59:23.149Z,10
2023-03-15T05:00:30.861Z,9
2023-03-15T05:01:37.735Z,8
2023-03-15T05:02:44.579Z,9
2023-03-15T05:03:51.497Z,8
2023-03-15T05:04:58.304Z,9
2023-03-15T05:06:06.275Z,10
2023-03-15T05:07:14.304Z,10
2023-03-15T05:08:21.311Z,9
2023-03-15T05:09:29.279Z,9
2023-03-15T05:10:36.214Z,9
2023-03-15T05:11:44.342Z,10
2023-03-15T05:12:51.559Z,8
2023-03-15T05:13:58.755Z,8
2023-03-15T05:15:07.372Z,9
2023-03-15T05:16:14.529Z,10
2023-03-15T05:17:21.545Z,10
2023-03-15T05:18:28.552Z,7
2023-03-15T05:19:35.540Z,9
2023-03-15T05:20:42.682Z,12
2023-03-15T05:21:50.818Z,12
2023-03-15T05:23:01.527Z,9
2023-03-15T05:24:10.454Z,9
2023-03-15T05:25:17.425Z,10
2023-03-15T05:26:24.614Z,15
2023-03-15T05:27:32.887Z,10
2023-03-15T05:28:40.046Z,10
2023-03-15T05:29:46.978Z,11
2023-03-15T05:30:53.946Z,9
2023-03-15T05:32:00.966Z,11
2023-03-15T05:33:09.136Z,12
2023-03-15T05:34:16.127Z,13
2023-03-15T05:35:23.188Z,12
2023-03-15T05:36:31.935Z,11
2023-03-15T05:37:38.878Z,11
2023-03-15T05:38:45.856Z,11
2023-03-15T05:39:52.778Z,11
2023-03-15T05:40:59.812Z,12
2023-03-15T05:42:07.010Z,10
2023-03-15T05:43:14.923Z,11
2023-03-15T05:44:22.044Z,11
2023-03-15T05:45:31.010Z,10
2023-03-15T05:46:38.001Z,11
2023-03-15T05:47:45.897Z,10
2023-03-15T05:48:52.868Z,10
2023-03-15T05:49:59.982Z,11
2023-03-15T05:51:08.918Z,11
2023-03-15T05:52:15.853Z,9
2023-03-15T05:53:25.837Z,9
2023-03-15T05:54:35.545Z,8
2023-03-15T05:55:42.666Z,12
2023-03-15T05:56:49.682Z,11
2023-03-15T05:57:58.783Z,9
2023-03-15T05:59:06.695Z,11
2023-03-15T06:00:13.702Z,9
2023-03-15T06:01:21.060Z,8
2023-03-15T06:02:30.380Z,9
2023-03-15T06:03:37.397Z,10
2023-03-15T06:04:45.162Z,11
2023-03-15T06:05:52.132Z,9
2023-03-15T06:06:59.383Z,10
2023-03-15T06:08:06.375Z,12
2023-03-15T06:09:13.626Z,12
2023-03-15T06:10:20.690Z,12
2023-03-15T06:11:27.741Z,9
2023-03-15T06:12:34.734Z,9
2023-03-15T06:13:41.711Z,10
2023-03-15T06:14:48.684Z,12
2023-03-15T06:15:55.781Z,11
2023-03-15T06:17:07.989Z,10
2023-03-15T06:18:16.074Z,13
2023-03-15T06:19:23.208Z,13
2023-03-15T06:20:31.132Z,9
2023-03-15T06:21:38.102Z,8
2023-03-15T06:22:45.048Z,9
2023-03-15T06:23:52.054Z,11
2023-03-15T06:24:59.075Z,8
2023-03-15T06:26:05.960Z,9
2023-03-15T06:27:13.076Z,8
2023-03-15T06:28:20.060Z,11
2023-03-15T06:29:27.167Z,8
2023-03-15T06:30:34.357Z,9
2023-03-15T06:31:42.316Z,12
2023-03-15T06:32:49.281Z,10
2023-03-15T06:33:58.900Z,9
2023-03-15T06:35:05.944Z,10
2023-03-15T06:36:13.842Z,8
2023-03-15T06:37:32.857Z,8
2023-03-15T06:38:29.030Z,8
2023-03-15T06:39:37.912Z,8
2023-03-15T06:40:44.997Z,9
2023-03-15T06:41:51.981Z,10
2023-03-15T06:43:01.320Z,9
2023-03-15T06:44:08.523Z,8
2023-03-15T06:45:16.505Z,8
2023-03-15T06:46:25.922Z,9
2023-03-15T06:47:32.900Z,12
2023-03-15T06:48:40.922Z,13
2023-03-15T06:49:48.145Z,10
2023-03-15T06:50:55.208Z,11
2023-03-15T06:52:02.224Z,12
2023-03-15T06:53:09.294Z,12
2023-03-15T06:54:16.268Z,10
2023-03-15T06:55:23.242Z,10
2023-03-15T06:56:30.331Z,11
2023-03-15T06:57:37.333Z,13
2023-03-15T06:58:44.442Z,10
2023-03-15T06:59:51.393Z,11
2023-03-15T07:00:58.431Z,10
2023-03-15T07:02:06.343Z,13
2023-03-15T07:03:16.311Z,8
2023-03-15T07:04:23.303Z,10
2023-03-15T07:05:30.337Z,11
2023-03-15T07:06:38.249Z,12
2023-03-15T07:07:46.354Z,11
2023-03-15T07:08:53.318Z,13
2023-03-15T07:10:01.604Z,11
2023-03-15T07:11:08.862Z,14
2023-03-15T07:12:15.917Z,12
2023-03-15T07:13:22.855Z,10
2023-03-15T07:14:30.718Z,12
2023-03-15T07:15:38.804Z,12
2023-03-15T07:16:45.764Z,10
2023-03-15T07:17:52.668Z,11
2023-03-15T07:18:59.707Z,10
2023-03-15T07:20:06.693Z,13
2023-03-15T07:21:15.034Z,11
2023-03-15T07:22:23.088Z,13
2023-03-15T07:23:30.053Z,10
2023-03-15T07:24:37.048Z,11
2023-03-15T07:25:54.633Z,13
2023-03-15T07:26:53.405Z,10
2023-03-15T07:28:00.383Z,11
2023-03-15T07:29:07.495Z,11
2023-03-15T07:30:14.582Z,10
2023-03-15T07:31:21.676Z,12
2023-03-15T07:32:28.789Z,12
2023-03-15T07:33:36.746Z,10
2023-03-15T07:34:43.741Z,12
2023-03-15T07:35:50.760Z,10
2023-03-15T07:36:57.784Z,12
2023-03-15T07:38:04.844Z,10
2023-03-15T07:39:11.840Z,11
2023-03-15T07:40:18.874Z,12
2023-03-15T07:41:27.050Z,11
2023-03-15T07:42:34.058Z,11
2023-03-15T07:43:41.175Z,12
2023-03-15T07:44:48.118Z,9
2023-03-15T07:45:55.154Z,8
2023-03-15T07:47:02.268Z,12
2023-03-15T07:48:09.448Z,9
2023-03-15T07:49:16.596Z,10
2023-03-15T07:50:23.548Z,14
2023-03-15T07:51:32.680Z,14
2023-03-15T07:52:39.678Z,11
2023-03-15T07:53:50.316Z,11
2023-03-15T07:54:57.804Z,10
2023-03-15T07:56:05.807Z,12
2023-03-15T07:57:13.915Z,15
2023-03-15T07:58:20.884Z,11
2023-03-15T07:59:27.899Z,11
2023-03-15T08:00:38.185Z,14
2023-03-15T08:01:47.562Z,10
2023-03-15T08:02:54.705Z,11
2023-03-15T08:04:01.865Z,10
2023-03-15T08:05:09.294Z,12
2023-03-15T08:06:16.553Z,10
2023-03-15T08:07:23.690Z,11
2023-03-15T08:08:31.098Z,12
2023-03-15T08:09:42.135Z,10
2023-03-15T08:10:54.331Z,11
2023-03-15T08:12:02.694Z,10
2023-03-15T08:13:13.563Z,11
2023-03-15T08:14:28.444Z,12
2023-03-15T08:16:04.959Z,12
2023-03-15T08:17:12.216Z,13
2023-03-15T08:18:23.253Z,12
2023-03-15T08:19:32.396Z,11
2023-03-15T08:20:42.068Z,11
2023-03-15T08:21:51.780Z,12
2023-03-15T08:23:24.980Z,12
2023-03-15T08:24:32.020Z,11
2023-03-15T08:25:39.122Z,11
2023-03-15T08:26:47.965Z,11
2023-03-15T08:27:56.797Z,10
2023-03-15T08:29:04.022Z,10
2023-03-15T08:30:11.955Z,11
2023-03-15T08:31:20.855Z,16
2023-03-15T08:32:27.956Z,10
2023-03-15T08:33:35.171Z,11
2023-03-15T08:34:43.048Z,11
2023-03-15T08:35:50.185Z,11
2023-03-15T08:36:58.390Z,10
2023-03-15T08:38:09.467Z,10
2023-03-15T08:39:16.447Z,11
2023-03-15T08:40:27.336Z,12
2023-03-15T08:41:34.262Z,10
2023-03-15T08:42:42.734Z,10
2023-03-15T08:44:04.764Z,11
2023-03-15T08:45:11.927Z,12
2023-03-15T08:46:52.313Z,12
2023-03-15T08:47:59.561Z,12
2023-03-15T08:49:09.388Z,10
2023-03-15T08:50:14.002Z,10
2023-03-15T08:51:24.142Z,15
2023-03-15T08:52:31.104Z,14
2023-03-15T08:53:52.282Z,13
2023-03-15T08:55:00.148Z,12
2023-03-15T08:58:10.631Z,10
2023-03-15T08:59:31.657Z,12
2023-03-15T09:00:47.579Z,13
2023-03-15T09:02:31.565Z,11
2023-03-15T09:04:15.385Z,11
2023-03-15T09:05:32.417Z,10
2023-03-15T09:06:42.517Z,10
2023-03-15T09:07:49.589Z,10
2023-03-15T09:09:09.291Z,11
2023-03-15T09:10:17.215Z,10
2023-03-15T09:11:47.082Z,10
2023-03-15T09:12:55.032Z,9
2023-03-15T09:14:03.147Z,9
2023-03-15T09:15:10.142Z,12
2023-03-15T09:16:17.802Z,9
2023-03-15T09:17:27.706Z,9
2023-03-15T09:18:34.764Z,8
2023-03-15T09:19:44.457Z,11
2023-03-15T09:20:51.897Z,10
2023-03-15T09:22:10.633Z,10
2023-03-15T09:23:09.062Z,8
2023-03-15T09:24:22.564Z,10
2023-03-15T09:25:33.237Z,9
2023-03-15T09:26:40.343Z,9
2023-03-15T09:27:49.878Z,9
2023-03-15T09:28:56.997Z,10
2023-03-15T09:30:29.666Z,10
2023-03-15T09:31:38.793Z,8
2023-03-15T09:32:49.085Z,9
2023-03-15T09:34:05.174Z,8
2023-03-15T09:35:27.655Z,10
2023-03-15T09:36:39.225Z,12
2023-03-15T09:37:46.252Z,9
2023-03-15T09:38:54.042Z,7
2023-03-15T09:40:04.685Z,10
2023-03-15T09:41:30.241Z,8
2023-03-15T09:42:47.359Z,10
2023-03-15T09:44:51.727Z,10
2023-03-15T09:46:11.748Z,9
2023-03-15T09:47:29.106Z,10
2023-03-15T09:48:46.653Z,9
2023-03-15T10:01:06.635Z,12
2023-03-15T10:27:26.981Z,10
2023-03-15T11:03:32.170Z,12
2023-03-15T11:04:39.966Z,14
2023-03-15T11:05:52.445Z,15
2023-03-15T11:09:23.789Z,15
2023-03-15T13:06:45.924Z,19
2023-03-15T13:09:23.663Z,17
2023-03-15T13:10:52.854Z,17
2023-03-15T13:12:00.588Z,18
2023-03-15T13:13:08.687Z,13
2023-03-15T13:14:24.097Z,12
2023-03-15T13:15:40.610Z,9
2023-03-15T13:16:48.867Z,77
2023-03-15T13:18:10.065Z,32
2023-03-15T13:19:23.324Z,136
2023-03-15T13:20:30.649Z,13
2023-03-15T13:21:46.147Z,12
2023-03-15T13:23:12.169Z,11
2023-03-15T13:24:34.716Z,16
2023-03-15T13:25:45.046Z,19
2023-03-15T13:26:59.984Z,11
2023-03-15T13:28:07.055Z,11
2023-03-15T13:29:19.251Z,12
2023-03-15T13:30:57.932Z,14
2023-03-15T13:32:06.738Z,13
2023-03-15T13:33:17.683Z,16
2023-03-15T13:34:31.286Z,13
2023-03-15T13:35:39.504Z,10
2023-03-15T13:36:47.680Z,12
2023-03-15T13:37:57.432Z,11
2023-03-15T13:39:27.453Z,13
2023-03-15T13:40:35.527Z,14
2023-03-15T13:41:50.105Z,22
2023-03-15T13:43:05.169Z,24
2023-03-15T13:44:15.020Z,23
2023-03-15T13:45:25.144Z,22
2023-03-15T13:46:32.125Z,12
2023-03-15T13:47:40.688Z,9
2023-03-15T13:48:50.273Z,10
2023-03-15T13:50:00.441Z,9
2023-03-15T13:51:10.019Z,7
2023-03-15T13:52:30.251Z,9
2023-03-15T13:53:48.872Z,12
2023-03-15T13:54:45.150Z,11
2023-03-15T13:55:53.163Z,13
2023-03-15T13:57:00.143Z,12
2023-03-15T13:58:14.946Z,12
2023-03-15T13:59:22.091Z,12
2023-03-15T14:00:29.117Z,17
2023-03-15T14:01:39.320Z,17
2023-03-15T14:02:46.478Z,18
2023-03-15T14:04:12.827Z,13
2023-03-15T14:05:20.696Z,12
2023-03-15T14:06:31.437Z,11
2023-03-15T14:07:40.837Z,14
2023-03-15T14:08:52.004Z,14
2023-03-15T14:09:59.122Z,14
2023-03-15T14:11:15.584Z,10
2023-03-15T14:12:22.664Z,20
2023-03-15T14:13:30.676Z,23
2023-03-15T14:14:42.263Z,19
2023-03-15T14:15:57.351Z,22
2023-03-15T14:17:06.948Z,16
2023-03-15T14:18:24.057Z,17
2023-03-15T14:19:34.208Z,9
2023-03-15T14:20:47.872Z,13
2023-03-15T14:22:13.760Z,13
2023-03-15T14:23:20.941Z,11
2023-03-15T14:24:28.294Z,12
2023-03-15T14:25:44.589Z,13
2023-03-15T14:26:54.617Z,25
2023-03-15T14:28:02.030Z,27
2023-03-15T14:29:09.090Z,27
2023-03-15T14:30:19.214Z,24
2023-03-15T14:31:26.377Z,28
2023-03-15T14:32:37.473Z,20
2023-03-15T14:33:44.574Z,10
2023-03-15T14:34:56.894Z,12
2023-03-15T14:36:15.240Z,19
2023-03-15T14:37:28.835Z,10
2023-03-15T14:38:42.267Z,10
2023-03-15T14:39:49.355Z,13
2023-03-15T14:40:56.807Z,15
2023-03-15T14:42:16.533Z,17
2023-03-15T14:43:23.819Z,12
2023-03-15T14:44:31.004Z,11
2023-03-15T14:45:38.305Z,10
2023-03-15T14:46:45.677Z,10
2023-03-15T14:47:57.014Z,15
2023-03-15T14:49:04.778Z,13
2023-03-15T14:50:17.673Z,13
2023-03-15T14:51:24.918Z,10
2023-03-15T14:52:32.267Z,20
2023-03-15T14:53:39.333Z,19
2023-03-15T14:54:46.361Z,17
2023-03-15T14:55:53.397Z,10
2023-03-15T14:57:00.411Z,10
2023-03-15T14:58:07.336Z,11
2023-03-15T14:59:14.224Z,11
2023-03-15T15:00:21.247Z,18
2023-03-15T15:01:28.303Z,20
2023-03-15T15:02:35.425Z,27
2023-03-15T15:03:42.329Z,64
2023-03-15T15:04:49.313Z,76
2023-03-15T15:05:56.187Z,35
2023-03-15T15:07:03.295Z,14
2023-03-15T15:08:13.193Z,16
2023-03-15T15:09:21.590Z,13
2023-03-15T15:10:28.721Z,17
2023-03-15T15:11:35.605Z,13
2023-03-15T15:12:43.201Z,18
2023-03-15T15:13:49.437Z,15
2023-03-15T15:14:56.304Z,13
2023-03-15T15:16:05.569Z,13
2023-03-15T15:17:13.313Z,15
2023-03-15T15:18:22.069Z,11
2023-03-15T15:19:31.892Z,81
2023-03-15T15:20:38.773Z,46
2023-03-15T15:21:46.578Z,28
2023-03-15T15:22:54.262Z,13
2023-03-15T15:24:01.155Z,11
2023-03-15T15:25:09.514Z,12
2023-03-15T15:26:19.430Z,11
2023-03-15T15:27:26.303Z,14
2023-03-15T15:28:36.338Z,11
2023-03-15T15:29:40.253Z,11
2023-03-15T15:30:47.114Z,10
2023-03-15T15:31:54.841Z,12
2023-03-15T15:33:02.956Z,9
2023-03-15T15:34:10.784Z,10
2023-03-15T15:35:17.907Z,13
2023-03-15T15:36:24.970Z,12
2023-03-15T15:37:35.153Z,11
2023-03-15T15:38:42.106Z,13
2023-03-15T15:39:49.041Z,13
2023-03-15T15:41:00.134Z,11
2023-03-15T15:42:07.125Z,12
2023-03-15T15:43:14.137Z,14
2023-03-15T15:44:23.666Z,15
2023-03-15T15:45:32.381Z,15
2023-03-15T15:46:39.481Z,16
2023-03-15T15:47:47.069Z,14
2023-03-15T15:48:55.053Z,13
2023-03-15T15:50:03.990Z,13
2023-03-15T15:51:11.413Z,13
2023-03-15T15:52:22.243Z,13
2023-03-15T15:53:32.622Z,14
2023-03-15T15:54:40.568Z,14
2023-03-15T15:55:47.663Z,16
2023-03-15T15:56:54.634Z,15
2023-03-15T15:58:03.418Z,15
2023-03-15T15:59:15.141Z,18
2023-03-15T16:00:23.144Z,25
2023-03-15T16:01:33.662Z,18
2023-03-15T16:02:40.686Z,15
2023-03-15T16:03:49.647Z,20
2023-03-15T16:04:56.860Z,22
2023-03-15T16:06:03.944Z,20
2023-03-15T16:07:14.428Z,20
2023-03-15T16:08:23.418Z,23
2023-03-15T16:09:30.859Z,17
2023-03-15T16:10:40.579Z,15
2023-03-15T16:11:47.551Z,16
2023-03-15T16:12:54.622Z,15
2023-03-15T16:14:01.655Z,12
2023-03-15T16:15:10.427Z,15
2023-03-15T16:16:19.017Z,14
2023-03-15T16:17:25.921Z,14
2023-03-15T16:18:35.222Z,14
2023-03-15T16:19:43.310Z,18
2023-03-15T16:20:50.587Z,18
2023-03-15T16:21:59.629Z,14
2023-03-15T16:23:06.699Z,18
2023-03-15T16:24:17.421Z,16
2023-03-15T16:25:29.029Z,15
2023-03-15T16:26:36.035Z,15
2023-03-15T16:27:45.584Z,25
2023-03-15T16:28:55.436Z,20
2023-03-15T16:30:04.163Z,14
2023-03-15T16:31:11.745Z,15
2023-03-15T16:32:29.734Z,15
2023-03-15T16:33:29.126Z,18
2023-03-15T16:34:45.271Z,20
2023-03-15T16:35:52.257Z,179
2023-03-15T16:37:02.763Z,142
2023-03-15T16:38:10.858Z,108
2023-03-15T16:39:18.058Z,85
2023-03-15T16:40:30.123Z,135
2023-03-15T16:41:40.465Z,122
2023-03-15T16:42:49.393Z,60
2023-03-15T16:43:57.072Z,68
2023-03-15T16:45:04.231Z,25
2023-03-15T16:46:14.409Z,24
2023-03-15T16:47:23.598Z,26
2023-03-15T16:48:30.624Z,25
2023-03-15T16:49:42.002Z,27
2023-03-15T16:50:48.996Z,26
2023-03-15T16:51:59.321Z,24
2023-03-15T16:53:06.282Z,23
2023-03-15T16:54:21.983Z,22
2023-03-15T16:55:20.836Z,18
2023-03-15T16:56:27.986Z,25
2023-03-15T16:57:35.874Z,36
2023-03-15T16:58:45.683Z,53
2023-03-15T16:59:56.707Z,53
2023-03-15T17:01:03.790Z,51
2023-03-15T17:02:11.061Z,35
2023-03-15T17:03:24.121Z,35
2023-03-15T17:04:36.704Z,37
2023-03-15T17:05:43.737Z,53
2023-03-15T17:06:54.830Z,57
2023-03-15T17:08:02.894Z,77
2023-03-15T17:09:09.975Z,47
2023-03-15T17:10:19.711Z,44
2023-03-15T17:11:28.598Z,47
2023-03-15T17:12:36.048Z,51
2023-03-15T17:13:45.539Z,74
2023-03-15T17:14:52.573Z,69
2023-03-15T17:16:00.469Z,93
2023-03-15T17:17:08.757Z,83
2023-03-15T17:18:19.628Z,85
2023-03-15T17:19:31.244Z,56
2023-03-15T17:20:38.703Z,69
2023-03-15T17:21:48.606Z,72
2023-03-15T17:22:56.205Z,56
2023-03-15T17:24:03.420Z,66
2023-03-15T17:25:10.680Z,119
2023-03-15T17:26:17.641Z,138
2023-03-15T17:27:24.841Z,113
2023-03-15T17:28:36.974Z,112
2023-03-15T17:30:09.113Z,104
2023-03-15T17:31:25.815Z,108
2023-03-15T17:32:41.258Z,86
2023-03-15T17:33:48.376Z,79
2023-03-15T17:34:56.265Z,67
2023-03-15T17:36:03.417Z,62
2023-03-15T17:37:08.083Z,62
2023-03-15T17:38:19.093Z,61
2023-03-15T17:39:26.764Z,63
2023-03-15T17:40:35.018Z,72
2023-03-15T17:41:42.186Z,85
2023-03-15T17:42:49.354Z,84
2023-03-15T17:43:58.486Z,97
2023-03-15T17:45:10.009Z,94
2023-03-15T17:46:25.431Z,97
2023-03-15T17:47:33.598Z,99
2023-03-15T17:48:40.716Z,97
2023-03-15T17:49:47.791Z,99
2023-03-15T17:50:58.625Z,92
2023-03-15T17:52:05.715Z,88
2023-03-15T17:53:16.072Z,85
2023-03-15T17:54:23.107Z,88
2023-03-15T17:55:30.201Z,94
2023-03-15T17:56:38.424Z,118
2023-03-15T17:57:54.959Z,129
2023-03-15T17:58:59.038Z,133
2023-03-15T18:00:08.532Z,140
2023-03-15T18:01:20.695Z,138
2023-03-15T18:02:32.642Z,131
2023-03-15T18:03:38.895Z,125
2023-03-15T18:04:45.832Z,114
2023-03-15T18:05:53.985Z,110
2023-03-15T18:07:00.977Z,101
2023-03-15T18:08:08.084Z,91
2023-03-15T18:09:20.340Z,125
2023-03-15T18:10:27.914Z,126
2023-03-15T18:11:46.953Z,122
2023-03-15T18:13:20.325Z,116
2023-03-15T18:14:27.542Z,105
2023-03-15T18:15:34.782Z,111
2023-03-15T18:16:43.849Z,95
2023-03-15T18:17:51.175Z,84
2023-03-15T18:19:02.630Z,81
2023-03-15T18:20:12.297Z,75
2023-03-15T18:21:19.522Z,79
2023-03-15T18:22:26.617Z,80
2023-03-15T18:23:33.716Z,72
2023-03-15T18:24:40.776Z,64
2023-03-15T18:25:48.055Z,59
2023-03-15T18:26:55.440Z,66
2023-03-15T18:28:03.636Z,87
2023-03-15T18:29:11.664Z,87
2023-03-15T18:30:18.823Z,77
2023-03-15T18:31:26.952Z,81
2023-03-15T18:32:40.421Z,102
2023-03-15T18:33:50.437Z,117
2023-03-15T18:35:01.490Z,121
2023-03-15T18:36:09.861Z,128
2023-03-15T18:37:16.847Z,138
2023-03-15T18:39:50.769Z,150
2023-03-15T18:41:46.664Z,141
2023-03-15T18:42:57.755Z,149
2023-03-15T18:44:04.898Z,148
2023-03-15T18:45:12.252Z,132
2023-03-15T18:46:19.739Z,135
2023-03-15T18:47:29.883Z,135
2023-03-15T18:48:40.657Z,136
2023-03-15T18:49:45.001Z,134
2023-03-15T18:50:52.029Z,136
2023-03-15T18:51:59.531Z,125
2023-03-15T18:53:06.658Z,121
2023-03-15T18:54:13.740Z,123
2023-03-15T18:55:25.847Z,115
2023-03-15T18:56:33.260Z,105
2023-03-15T18:57:50.281Z,104
2023-03-15T18:58:57.300Z,101
2023-03-15T19:00:04.682Z,106
2023-03-15T19:01:12.754Z,103
2023-03-15T19:02:22.734Z,106
2023-03-15T19:03:29.792Z,117
2023-03-15T19:04:36.870Z,118
2023-03-15T19:05:43.903Z,122
2023-03-15T19:06:52.702Z,116
2023-03-15T19:07:59.678Z,122
2023-03-15T19:09:06.756Z,128
2023-03-15T19:10:13.819Z,129
2023-03-15T19:11:20.958Z,121
2023-03-15T19:12:27.976Z,127
2023-03-15T19:13:35.007Z,132
2023-03-15T19:14:42.000Z,129
2023-03-15T19:15:49.302Z,122
2023-03-15T19:16:56.385Z,123
2023-03-15T19:18:03.465Z,121
2023-03-15T19:19:13.596Z,120
2023-03-15T19:20:20.696Z,121
2023-03-15T19:21:28.305Z,121
2023-03-15T19:22:35.755Z,120
2023-03-15T19:23:43.698Z,117
2023-03-15T19:24:50.839Z,126
2023-03-15T19:26:00.056Z,130
2023-03-15T19:27:11.467Z,133
2023-03-15T19:28:18.477Z,130
2023-03-15T19:29:28.567Z,125
2023-03-15T19:30:36.816Z,129
2023-03-15T19:31:43.864Z,128
2023-03-15T19:32:50.915Z,130
2023-03-15T19:33:57.882Z,128
2023-03-15T19:35:09.493Z,132
2023-03-15T19:36:17.369Z,133
2023-03-15T19:37:25.135Z,130
2023-03-15T19:38:32.662Z,126
2023-03-15T19:39:43.684Z,127
2023-03-15T19:40:50.831Z,130
2023-03-15T19:41:58.560Z,125
2023-03-15T19:43:06.652Z,124
2023-03-15T19:44:17.996Z,117
2023-03-15T19:45:25.059Z,112
2023-03-15T19:46:32.181Z,115